createdAt,value
2022-09-07T00:01:39.955Z,9.46
2022-09-07T00:04:10.565Z,9.53
2022-09-07T00:06:40.513Z,9.60
2022-09-07T00:09:11.851Z,9.61
2022-09-07T00:11:42.355Z,9.48
2022-09-07T00:14:12.462Z,9.59
2022-09-07T00:16:42.487Z,9.72
2022-09-07T00:19:12.450Z,9.76
2022-09-07T00:21:42.271Z,9.55
2022-09-07T00:24:14.529Z,9.32
2022-09-07T00:26:44.567Z,9.17
2022-09-07T00:29:14.337Z,9.23
2022-09-07T00:31:44.363Z,9.37
2022-09-07T00:34:14.294Z,9.31
2022-09-07T00:36:44.219Z,9.33
2022-09-07T00:39:15.629Z,9.34
2022-09-07T00:41:45.712Z,9.18
2022-09-07T00:44:59.302Z,9.22
2022-09-07T00:47:37.491Z,9.21
2022-09-07T00:52:17.774Z,9.29
2022-09-07T00:54:51.330Z,9.28
2022-09-07T00:57:22.395Z,9.16
2022-09-07T00:59:55.877Z,9.12
2022-09-07T01:02:27.116Z,9.08
2022-09-07T01:05:09.370Z,9.13
2022-09-07T01:07:41.189Z,9.08
2022-09-07T01:10:12.494Z,8.97
2022-09-07T01:12:42.412Z,8.86
2022-09-07T01:15:13.416Z,8.91
2022-09-07T01:18:00.997Z,8.93
2022-09-07T01:20:56.431Z,8.88
2022-09-07T01:24:22.694Z,8.74
2022-09-07T01:27:49.557Z,8.73
2022-09-07T01:30:23.549Z,8.82
2022-09-07T01:33:34.441Z,8.87
2022-09-07T01:36:19.090Z,8.86
2022-09-07T01:38:52.902Z,8.78
2022-09-07T01:41:31.036Z,8.78
2022-09-07T01:44:06.054Z,8.86
2022-09-07T01:46:43.760Z,8.84
2022-09-07T01:49:21.110Z,8.82
2022-09-07T01:51:57.414Z,8.82
2022-09-07T01:54:34.149Z,8.84
2022-09-07T01:57:09.995Z,8.78
2022-09-07T01:59:45.770Z,8.68
2022-09-07T02:02:23.149Z,8.67
2022-09-07T02:04:58.929Z,8.69
2022-09-07T02:07:35.874Z,8.73
2022-09-07T02:10:12.229Z,8.82
2022-09-07T02:12:50.719Z,8.76
2022-09-07T02:15:28.866Z,8.69
2022-09-07T02:18:06.210Z,8.76
2022-09-07T02:20:40.159Z,8.75
2022-09-07T02:23:18.812Z,8.72
2022-09-07T02:25:55.622Z,8.69
2022-09-07T02:28:31.240Z,8.74
2022-09-07T02:31:01.618Z,8.71
2022-09-07T02:33:33.574Z,8.53
2022-09-07T02:36:05.008Z,8.54
2022-09-07T02:38:37.713Z,8.52
2022-09-07T02:41:07.968Z,8.49
2022-09-07T02:43:37.909Z,8.49
2022-09-07T02:46:26.853Z,8.47
2022-09-07T02:49:10.177Z,8.46
2022-09-07T02:51:49.294Z,8.49
2022-09-07T02:54:41.431Z,8.55
2022-09-07T02:57:24.974Z,8.58
2022-09-07T03:00:07.394Z,8.56
2022-09-07T03:02:49.600Z,8.54
2022-09-07T03:05:26.569Z,8.54
2022-09-07T03:08:04.616Z,8.53
2022-09-07T03:10:35.492Z,8.51
2022-09-07T03:13:05.553Z,8.50
2022-09-07T03:15:35.470Z,8.44
2022-09-07T03:18:05.369Z,8.33
2022-09-07T03:20:36.770Z,8.37
2022-09-07T03:23:06.833Z,8.40
2022-09-07T03:25:36.782Z,8.44
2022-09-07T03:28:07.330Z,8.34
2022-09-07T03:30:37.392Z,8.30
2022-09-07T03:33:07.673Z,8.35
2022-09-07T03:35:39.330Z,8.40
2022-09-07T03:38:09.314Z,8.36
2022-09-07T03:40:39.352Z,8.19
2022-09-07T03:43:09.290Z,8.17
2022-09-07T03:45:39.226Z,8.25
2022-09-07T03:48:09.194Z,8.30
2022-09-07T03:53:15.974Z,8.30
2022-09-07T03:55:45.994Z,8.30
2022-09-07T03:58:16.018Z,8.30
2022-09-07T04:00:45.946Z,8.33
2022-09-07T04:03:15.893Z,8.27
2022-09-07T04:05:45.755Z,8.20
2022-09-07T04:08:17.409Z,8.21
2022-09-07T04:10:47.234Z,8.25
2022-09-07T04:13:17.273Z,8.30
2022-09-07T04:15:49.049Z,8.34
2022-09-07T04:18:22.756Z,8.38
2022-09-07T04:20:53.294Z,8.39
2022-09-07T04:23:24.670Z,8.42
2022-09-07T04:25:55.670Z,8.41
2022-09-07T04:28:27.149Z,8.38
2022-09-07T04:30:57.207Z,8.40
2022-09-07T04:33:27.260Z,8.43
2022-09-07T04:35:57.216Z,8.44
2022-09-07T04:38:28.804Z,8.49
2022-09-07T04:41:03.285Z,8.53
2022-09-07T04:43:33.195Z,8.56
2022-09-07T04:46:05.644Z,8.64
2022-09-07T04:48:35.870Z,8.70
2022-09-07T04:51:10.352Z,8.82
2022-09-07T04:53:42.030Z,8.96
2022-09-07T04:56:15.090Z,9.10
2022-09-07T04:58:46.934Z,9.19
2022-09-07T05:01:18.820Z,9.29
2022-09-07T05:03:49.718Z,9.49
2022-09-07T05:06:21.570Z,9.66
2022-09-07T05:08:57.050Z,9.85
2022-09-07T05:11:29.775Z,10.05
2022-09-07T05:14:00.533Z,10.22
2022-09-07T05:16:31.309Z,10.43
2022-09-07T05:19:03.693Z,10.62
2022-09-07T05:21:35.890Z,10.80
2022-09-07T05:24:08.410Z,11.01
2022-09-07T05:26:40.632Z,11.17
2022-09-07T05:32:00.738Z,11.62
2022-09-07T05:34:31.110Z,11.85
2022-09-07T05:37:01.823Z,12.05
2022-09-07T05:39:33.548Z,12.26
2022-09-07T05:42:03.455Z,12.48
2022-09-07T05:44:48.602Z,12.70
2022-09-07T05:47:18.814Z,12.93
2022-09-07T05:49:48.787Z,13.12
2022-09-07T05:52:18.666Z,13.32
2022-09-07T05:54:50.152Z,13.51
2022-09-07T05:57:20.004Z,13.71
2022-09-07T05:59:49.887Z,13.91
2022-09-07T06:02:19.914Z,14.12
2022-09-07T06:04:49.868Z,14.35
2022-09-07T06:07:22.419Z,14.52
2022-09-07T06:12:49.552Z,14.89
2022-09-07T06:15:19.780Z,15.04
2022-09-07T06:17:49.707Z,15.22
2022-09-07T06:20:19.692Z,15.40
2022-09-07T06:22:49.601Z,15.56
2022-09-07T06:25:21.036Z,15.72
2022-09-07T06:27:54.271Z,15.76
2022-09-07T06:30:25.695Z,15.81
2022-09-07T06:32:55.772Z,15.93
2022-09-07T06:35:25.612Z,16.12
2022-09-07T06:37:55.518Z,16.24
2022-09-07T06:40:26.929Z,16.30
2022-09-07T06:42:56.974Z,16.49
2022-09-07T06:45:26.940Z,16.67
2022-09-07T06:47:57.182Z,16.86
2022-09-07T06:56:09.397Z,17.43
2022-09-07T06:58:42.428Z,17.59
2022-09-07T07:01:16.708Z,17.68
2022-09-07T07:03:47.954Z,17.76
2022-09-07T07:06:17.755Z,17.95
2022-09-07T07:08:49.574Z,18.02
2022-09-07T07:11:19.515Z,18.15
2022-09-07T07:13:49.397Z,18.17
2022-09-07T07:16:20.818Z,18.34
2022-09-07T07:18:52.701Z,18.38
2022-09-07T07:21:22.794Z,18.55
2022-09-07T07:23:55.666Z,18.69
2022-09-07T07:26:27.973Z,18.85
2022-09-07T07:31:35.372Z,19.01
2022-09-07T07:34:05.326Z,19.14
2022-09-07T07:36:35.986Z,19.29
2022-09-07T07:39:07.626Z,19.38
2022-09-07T07:44:23.050Z,19.27
2022-09-07T07:46:53.373Z,19.33
2022-09-07T07:49:23.634Z,19.51
2022-09-07T07:54:47.369Z,19.95
2022-09-07T07:57:19.337Z,20.01
2022-09-07T07:59:49.170Z,20.14
2022-09-07T08:02:20.346Z,20.34
2022-09-07T08:04:50.236Z,20.46
2022-09-07T08:07:20.775Z,20.40
2022-09-07T08:09:52.035Z,20.32
2022-09-07T08:12:26.658Z,20.36
2022-09-07T08:14:59.624Z,20.52
2022-09-07T08:17:29.495Z,20.50
2022-09-07T08:19:59.554Z,20.55
2022-09-07T08:22:32.968Z,20.56
2022-09-07T08:25:07.456Z,20.58
2022-09-07T08:27:37.381Z,20.72
2022-09-07T08:30:09.072Z,20.73
2022-09-07T08:32:39.370Z,20.92
2022-09-07T08:35:09.838Z,21.07
2022-09-07T08:37:39.600Z,21.17
2022-09-07T08:40:18.863Z,21.09
2022-09-07T08:43:15.039Z,20.98
2022-09-07T08:45:50.236Z,20.90
2022-09-07T08:48:33.176Z,21.07
2022-09-07T08:51:11.974Z,21.00
2022-09-07T08:53:48.380Z,20.77
2022-09-07T08:56:33.450Z,21.02
2022-09-07T08:59:09.931Z,21.34
2022-09-07T09:02:26.317Z,21.54
2022-09-07T09:04:34.226Z,21.51
2022-09-07T09:07:14.553Z,21.58
2022-09-07T09:10:21.736Z,21.64
2022-09-07T09:13:17.542Z,21.68
2022-09-07T09:16:06.328Z,21.74
2022-09-07T09:18:59.390Z,21.64
2022-09-07T09:21:29.374Z,21.63
2022-09-07T09:24:09.830Z,21.69
2022-09-07T09:26:42.027Z,21.75
2022-09-07T09:29:23.670Z,21.92
2022-09-07T09:31:53.893Z,22.02
2022-09-07T09:34:27.957Z,22.02
2022-09-07T09:36:59.777Z,21.93
2022-09-07T09:39:35.724Z,21.58
2022-09-07T09:42:18.974Z,21.19
2022-09-07T09:44:50.285Z,21.44
2022-09-07T09:47:33.057Z,21.60
2022-09-07T09:53:27.929Z,21.69
2022-09-07T09:55:58.431Z,21.74
2022-09-07T10:01:28.068Z,22.05
2022-09-07T10:04:00.959Z,22.16
2022-09-07T10:06:32.661Z,22.10
2022-09-07T10:09:05.033Z,22.02
2022-09-07T10:14:44.151Z,22.09
2022-09-07T10:17:19.750Z,22.00
2022-09-07T10:19:50.362Z,21.85
2022-09-07T10:22:32.759Z,21.88
2022-09-07T10:25:34.717Z,22.07
2022-09-07T10:28:21.346Z,22.11
2022-09-07T10:31:16.881Z,21.98
2022-09-07T10:36:53.364Z,22.19
2022-09-07T10:39:30.025Z,22.37
2022-09-07T10:42:17.809Z,22.42
2022-09-07T10:45:02.751Z,22.54
2022-09-07T10:47:48.562Z,22.34
2022-09-07T10:50:33.413Z,22.29
2022-09-07T10:53:41.743Z,22.31
2022-09-07T10:56:19.414Z,22.33
2022-09-07T10:59:05.690Z,22.56
2022-09-07T11:01:53.616Z,22.28
2022-09-07T11:04:44.733Z,22.32
2022-09-07T11:07:32.793Z,22.50
2022-09-07T11:10:15.696Z,22.57
2022-09-07T11:12:47.650Z,22.49
2022-09-07T11:15:25.049Z,22.60
2022-09-07T11:18:00.578Z,22.92
2022-09-07T11:20:35.819Z,23.00
2022-09-07T11:23:17.289Z,22.78
2022-09-07T11:26:04.101Z,22.81
2022-09-07T11:28:46.295Z,23.00
2022-09-07T11:31:25.194Z,23.16
2022-09-07T11:36:58.743Z,23.19
2022-09-07T11:39:35.769Z,23.22
2022-09-07T11:45:06.633Z,23.58
2022-09-07T11:47:43.694Z,23.77
2022-09-07T11:50:19.676Z,23.97
2022-09-07T11:52:54.533Z,23.95
2022-09-07T11:55:28.818Z,23.92
2022-09-07T11:58:30.776Z,24.04
2022-09-07T12:01:16.190Z,24.13
2022-09-07T12:04:16.746Z,23.78
2022-09-07T12:07:13.229Z,23.95
2022-09-07T12:10:02.540Z,24.08
2022-09-07T12:12:58.018Z,24.37
2022-09-07T12:15:38.574Z,24.44
2022-09-07T12:18:25.118Z,24.29
2022-09-07T12:20:56.494Z,24.35
2022-09-07T12:23:32.582Z,24.36
2022-09-07T12:26:51.753Z,24.31
2022-09-07T12:29:27.862Z,24.21
2022-09-07T12:32:07.631Z,24.08
2022-09-07T12:34:59.025Z,24.25
2022-09-07T12:37:45.062Z,24.08
2022-09-07T12:40:51.090Z,24.01
2022-09-07T12:43:55.771Z,24.00
2022-09-07T12:46:50.216Z,23.92
2022-09-07T12:53:30.473Z,23.19
2022-09-07T12:56:28.452Z,22.75
2022-09-07T12:59:41.371Z,22.67
2022-09-07T13:02:36.143Z,22.52
2022-09-07T13:05:20.523Z,22.21
2022-09-07T13:08:39.453Z,22.17
2022-09-07T13:11:33.721Z,22.07
2022-09-07T13:14:09.434Z,21.99
2022-09-07T13:20:21.430Z,21.79
2022-09-07T13:23:20.860Z,21.65
2022-09-07T13:26:00.692Z,21.53
2022-09-07T13:28:42.494Z,21.30
2022-09-07T13:31:45.590Z,21.08
2022-09-07T13:34:51.234Z,21.03
2022-09-07T13:37:26.833Z,21.13
2022-09-07T13:39:59.931Z,21.13
2022-09-07T13:42:34.564Z,21.07
2022-09-07T13:45:23.395Z,20.91
2022-09-07T13:48:03.553Z,20.80
2022-09-07T13:50:45.272Z,20.83
2022-09-07T13:54:02.572Z,20.65
2022-09-07T13:56:43.133Z,20.48
2022-09-07T13:59:23.165Z,20.41
2022-09-07T14:01:54.934Z,20.28
2022-09-07T14:04:28.276Z,20.29
2022-09-07T14:07:07.112Z,20.30
2022-09-07T14:09:37.865Z,20.22
2022-09-07T14:12:17.792Z,20.18
2022-09-07T14:14:47.614Z,20.09
2022-09-07T14:17:22.071Z,19.93
2022-09-07T14:19:53.596Z,19.72
2022-09-07T14:22:27.955Z,19.60
2022-09-07T14:25:00.056Z,19.68
2022-09-07T14:27:35.331Z,19.59
2022-09-07T14:30:28.516Z,19.53
2022-09-07T14:33:04.095Z,19.58
2022-09-07T14:35:38.966Z,19.51
2022-09-07T14:38:15.879Z,19.34
2022-09-07T14:40:45.875Z,19.09
2022-09-07T14:43:31.930Z,19.00
2022-09-07T14:46:22.238Z,18.97
2022-09-07T14:48:56.475Z,18.86
2022-09-07T14:51:35.012Z,18.76
2022-09-07T14:54:07.810Z,18.73
2022-09-07T14:56:40.469Z,18.75
2022-09-07T14:59:38.832Z,18.62
2022-09-07T15:02:37.504Z,18.52
2022-09-07T15:05:26.383Z,18.54
2022-09-07T15:07:58.851Z,18.51
2022-09-07T15:10:37.420Z,18.55
2022-09-07T15:13:25.538Z,18.46
2022-09-07T15:16:03.880Z,18.39
2022-09-07T15:19:02.512Z,18.36
2022-09-07T15:21:36.949Z,18.28
2022-09-07T15:24:07.550Z,18.17
2022-09-07T15:29:32.810Z,18.01
2022-09-07T15:32:05.139Z,17.99
2022-09-07T15:34:35.364Z,18.02
2022-09-07T15:38:01.110Z,18.01
2022-09-07T15:39:56.530Z,17.96
2022-09-07T15:45:16.641Z,17.90
2022-09-07T15:47:51.169Z,17.84
2022-09-07T15:56:05.913Z,17.58
2022-09-07T15:58:35.713Z,17.51
2022-09-07T16:03:57.956Z,17.34
2022-09-07T16:06:28.666Z,17.26
2022-09-07T16:08:59.933Z,17.13
2022-09-07T16:11:31.302Z,17.05
2022-09-07T16:14:03.659Z,16.98
2022-09-07T16:19:23.953Z,16.86
2022-09-07T16:21:57.463Z,16.78
2022-09-07T16:24:30.188Z,16.73
2022-09-07T16:27:00.058Z,16.69
2022-09-07T16:29:29.932Z,16.64
2022-09-07T16:34:49.589Z,16.41
2022-09-07T16:37:19.489Z,16.30
2022-09-07T16:39:51.763Z,16.21
2022-09-07T16:42:21.694Z,16.07
2022-09-07T16:44:53.713Z,15.91
2022-09-07T16:47:24.580Z,15.74
2022-09-07T16:49:54.670Z,15.60
2022-09-07T16:52:25.035Z,15.44
2022-09-07T16:54:56.398Z,15.42
2022-09-07T16:57:26.587Z,15.39
2022-09-07T16:59:56.887Z,15.27
2022-09-07T17:02:26.682Z,15.22
2022-09-07T17:04:56.692Z,15.22
2022-09-07T17:07:26.585Z,15.17
2022-09-07T17:09:57.997Z,15.11
2022-09-07T17:12:27.884Z,14.95
2022-09-07T17:14:57.634Z,14.91
2022-09-07T17:17:27.627Z,14.79
2022-09-07T17:19:58.593Z,14.73
2022-09-07T17:22:29.523Z,14.65
2022-09-07T17:25:00.976Z,14.47
2022-09-07T17:27:30.739Z,14.45
2022-09-07T17:30:00.633Z,14.46
2022-09-07T17:32:32.943Z,14.43
2022-09-07T17:35:02.434Z,14.39
2022-09-07T17:37:32.335Z,14.29
2022-09-07T17:40:05.738Z,14.27
2022-09-07T17:45:28.024Z,14.22
2022-09-07T17:47:57.876Z,14.16
2022-09-07T17:50:27.713Z,14.08
2022-09-07T17:52:57.511Z,14.02
2022-09-07T17:55:28.832Z,13.89
2022-09-07T17:58:03.727Z,13.84
2022-09-07T18:00:34.742Z,13.74
2022-09-07T18:03:04.475Z,13.69
2022-09-07T18:05:36.318Z,13.62
2022-09-07T18:08:06.336Z,13.55
2022-09-07T18:13:36.122Z,13.42
2022-09-07T18:16:14.355Z,13.41
2022-09-07T18:18:44.552Z,13.37
2022-09-07T18:21:17.696Z,13.36
2022-09-07T18:23:48.659Z,13.32
2022-09-07T18:26:20.433Z,13.23
2022-09-07T18:29:18.758Z,13.20
2022-09-07T18:31:42.680Z,13.19
2022-09-07T18:34:12.495Z,13.14
2022-09-07T18:36:43.940Z,12.94
2022-09-07T18:39:14.941Z,12.84
2022-09-07T18:41:46.127Z,12.79
2022-09-07T18:47:06.713Z,12.80
2022-09-07T18:49:36.536Z,12.76
2022-09-07T18:53:16.773Z,12.64
2022-09-07T18:55:46.978Z,12.61
2022-09-07T18:58:17.316Z,12.58
2022-09-07T19:00:50.829Z,12.53
2022-09-07T19:03:20.589Z,12.51
2022-09-07T19:05:50.727Z,12.43
2022-09-07T19:08:22.504Z,12.36
2022-09-07T19:10:52.437Z,12.36
2022-09-07T19:13:22.586Z,12.29
2022-09-07T19:15:52.685Z,12.24
2022-09-07T19:18:22.428Z,12.26
2022-09-07T19:20:52.413Z,12.28
2022-09-07T19:23:23.750Z,12.29
2022-09-07T19:25:54.719Z,12.26
2022-09-07T19:28:24.716Z,12.28
2022-09-07T19:30:54.730Z,12.25
2022-09-07T19:33:25.094Z,12.23
2022-09-07T19:35:54.958Z,12.18
2022-09-07T19:38:26.575Z,12.12
2022-09-07T19:40:59.453Z,12.11
2022-09-07T19:43:33.373Z,12.10
2022-09-07T19:46:03.730Z,12.06
2022-09-07T19:48:34.392Z,12.03
2022-09-07T19:51:04.768Z,11.96
2022-09-07T19:53:37.751Z,11.92
2022-09-07T19:56:09.558Z,11.77
2022-09-07T19:58:41.999Z,11.79
2022-09-07T20:01:12.837Z,11.73
2022-09-07T20:03:43.655Z,11.68
2022-09-07T20:06:16.098Z,11.63
2022-09-07T20:08:47.603Z,11.56
2022-09-07T20:11:19.955Z,11.52
2022-09-07T20:13:49.755Z,11.58
2022-09-07T20:16:21.503Z,11.56
2022-09-07T20:18:51.376Z,11.58
2022-09-07T20:21:24.074Z,11.67
2022-09-07T20:23:55.562Z,11.69
2022-09-07T20:26:25.658Z,11.75
2022-09-07T20:29:23.378Z,11.81
2022-09-07T20:31:49.669Z,11.72
2022-09-07T20:34:19.670Z,11.74
2022-09-07T20:36:51.715Z,11.94
2022-09-07T20:39:24.455Z,12.38
2022-09-07T20:41:54.290Z,12.72
2022-09-07T20:44:24.121Z,12.74
2022-09-07T20:46:54.001Z,12.78
2022-09-07T20:49:23.803Z,12.89
2022-09-07T20:51:53.619Z,13.05
2022-09-07T20:54:24.966Z,13.06
2022-09-07T20:56:54.811Z,13.29
2022-09-07T20:59:26.015Z,13.41
2022-09-07T21:01:55.708Z,13.37
2022-09-07T21:04:26.793Z,13.28
2022-09-07T21:06:56.639Z,13.29
2022-09-07T21:09:28.071Z,13.32
2022-09-07T21:11:57.721Z,13.27
2022-09-07T21:14:27.455Z,13.42
2022-09-07T21:16:57.435Z,13.59
2022-09-07T21:19:27.289Z,13.65
2022-09-07T21:21:57.258Z,13.76
2022-09-07T21:24:28.834Z,13.83
2022-09-07T21:26:58.577Z,13.90
2022-09-07T21:29:28.338Z,13.93
2022-09-07T21:31:58.451Z,13.97
2022-09-07T21:34:28.315Z,13.96
2022-09-07T21:36:58.242Z,14.00
2022-09-07T21:39:29.672Z,14.00
2022-09-07T21:41:59.475Z,14.01
2022-09-07T21:44:29.314Z,14.01
2022-09-07T21:46:59.152Z,14.02
2022-09-07T21:49:28.925Z,13.97
2022-09-07T21:53:14.872Z,13.95
2022-09-07T21:55:44.820Z,13.96
2022-09-07T21:58:14.577Z,13.98
2022-09-07T22:00:44.408Z,14.00
2022-09-07T22:03:14.212Z,13.94
2022-09-07T22:05:44.018Z,13.73
2022-09-07T22:08:15.959Z,13.49
2022-09-07T22:10:47.224Z,13.30
2022-09-07T22:13:17.233Z,13.08
2022-09-07T22:15:46.991Z,12.91
2022-09-07T22:18:16.854Z,12.66
2022-09-07T22:20:46.619Z,12.42
2022-09-07T22:23:18.059Z,12.29
2022-09-07T22:25:54.515Z,12.22
2022-09-07T22:28:24.314Z,12.16
2022-09-07T22:30:55.098Z,12.05
2022-09-07T22:33:25.574Z,11.83
2022-09-07T22:35:55.370Z,11.71
2022-09-07T22:38:26.695Z,11.75
2022-09-07T22:40:56.471Z,11.72
2022-09-07T22:43:26.268Z,11.66
2022-09-07T22:45:56.158Z,11.47
2022-09-07T22:48:25.936Z,11.41
2022-09-07T22:50:57.735Z,11.47
2022-09-07T22:53:29.449Z,11.41
2022-09-07T22:55:59.955Z,11.38
2022-09-07T22:58:30.271Z,11.37
2022-09-07T23:01:01.734Z,11.37
2022-09-07T23:03:32.963Z,11.39
2022-09-07T23:06:03.099Z,11.31
2022-09-07T23:08:34.284Z,11.24
2022-09-07T23:11:08.346Z,11.29
2022-09-07T23:13:38.171Z,11.00
2022-09-07T23:16:09.539Z,10.98
2022-09-07T23:18:42.197Z,10.87
2022-09-07T23:21:13.631Z,10.84
2022-09-07T23:23:45.101Z,10.69
2022-09-07T23:26:14.894Z,10.74
2022-09-07T23:28:44.638Z,10.87
2022-09-07T23:31:14.617Z,10.90
2022-09-07T23:33:44.598Z,10.84
2022-09-07T23:36:14.658Z,10.74
2022-09-07T23:38:46.175Z,10.76
2022-09-07T23:41:16.911Z,10.74
2022-09-07T23:43:46.852Z,10.60
2022-09-07T23:46:17.529Z,10.52
2022-09-07T23:48:48.515Z,10.45
2022-09-07T23:51:23.487Z,10.32
2022-09-07T23:53:55.512Z,10.32
2022-09-07T23:56:25.813Z,10.21
2022-09-07T23:58:55.771Z,10.25
